sensor_id;sensor_type;location;lat;lon;timestamp;pressure;altitude;pressure_sealevel;temperature;humidity
21276;BME280;36472;52.170;20.884;2023-05-21T00:00:27;101273.53;;;16.38;68.51
21276;BME280;36472;52.170;20.884;2023-05-21T00:03:16;101267.84;;;16.31;68.85
21276;BME280;36472;52.170;20.884;2023-05-21T00:05:46;101262.78;;;16.28;68.43
21276;BME280;36472;52.170;20.884;2023-05-21T00:08:17;101263.75;;;16.27;69.11
21276;BME280;36472;52.170;20.884;2023-05-21T00:10:45;101261.69;;;16.19;69.18
21276;BME280;36472;52.170;20.884;2023-05-21T00:13:14;101263.06;;;16.12;69.83
21276;BME280;36472;52.170;20.884;2023-05-21T00:15:43;101258.47;;;16.03;70.49
21276;BME280;36472;52.170;20.884;2023-05-21T00:18:12;101264.47;;;15.94;70.60
21276;BME280;36472;52.170;20.884;2023-05-21T00:20:41;101261.06;;;15.92;70.71
21276;BME280;36472;52.170;20.884;2023-05-21T00:23:11;101264.19;;;15.85;70.98
21276;BME280;36472;52.170;20.884;2023-05-21T00:25:44;101264.53;;;15.81;71.22
21276;BME280;36472;52.170;20.884;2023-05-21T00:28:14;101255.22;;;15.75;71.54
21276;BME280;36472;52.170;20.884;2023-05-21T00:30:44;101254.78;;;15.68;72.70
21276;BME280;36472;52.170;20.884;2023-05-21T00:33:14;101260.31;;;15.65;73.00
21276;BME280;36472;52.170;20.884;2023-05-21T00:35:42;101263.19;;;15.62;72.98
21276;BME280;36472;52.170;20.884;2023-05-21T00:38:14;101273.28;;;15.57;72.77
21276;BME280;36472;52.170;20.884;2023-05-21T00:40:44;101267.56;;;15.50;72.93
21276;BME280;36472;52.170;20.884;2023-05-21T00:43:13;101266.31;;;15.43;73.28
21276;BME280;36472;52.170;20.884;2023-05-21T00:45:42;101273.31;;;15.44;73.13
21276;BME280;36472;52.170;20.884;2023-05-21T00:48:13;101272.69;;;15.41;73.21
21276;BME280;36472;52.170;20.884;2023-05-21T00:50:42;101274.06;;;15.33;73.19
21276;BME280;36472;52.170;20.884;2023-05-21T00:53:13;101271.66;;;15.30;73.35
21276;BME280;36472;52.170;20.884;2023-05-21T00:55:45;101274.63;;;15.26;73.18
21276;BME280;36472;52.170;20.884;2023-05-21T00:58:16;101272.19;;;15.23;73.88
21276;BME280;36472;52.170;20.884;2023-05-21T01:00:45;101274.00;;;15.22;73.95
21276;BME280;36472;52.170;20.884;2023-05-21T01:03:15;101271.69;;;15.18;74.04
21276;BME280;36472;52.170;20.884;2023-05-21T01:05:44;101270.94;;;15.15;73.96
21276;BME280;36472;52.170;20.884;2023-05-21T01:08:15;101272.22;;;15.10;74.34
21276;BME280;36472;52.170;20.884;2023-05-21T01:10:44;101274.84;;;15.10;73.86
21276;BME280;36472;52.170;20.884;2023-05-21T01:13:14;101265.56;;;15.04;73.82
21276;BME280;36472;52.170;20.884;2023-05-21T01:15:44;101271.69;;;15.05;73.66
21276;BME280;36472;52.170;20.884;2023-05-21T01:18:13;101268.31;;;15.03;74.01
21276;BME280;36472;52.170;20.884;2023-05-21T01:20:42;101260.25;;;15.04;73.58
21276;BME280;36472;52.170;20.884;2023-05-21T01:23:17;101263.34;;;14.98;73.41
21276;BME280;36472;52.170;20.884;2023-05-21T01:25:46;101257.72;;;15.03;73.20
21276;BME280;36472;52.170;20.884;2023-05-21T01:28:15;101261.34;;;15.02;73.17
21276;BME280;36472;52.170;20.884;2023-05-21T01:30:44;101262.69;;;14.94;73.65
21276;BME280;36472;52.170;20.884;2023-05-21T01:33:20;101262.06;;;14.91;73.83
21276;BME280;36472;52.170;20.884;2023-05-21T01:36:01;101258.59;;;14.90;73.37
21276;BME280;36472;52.170;20.884;2023-05-21T01:38:42;101254.22;;;14.89;73.52
21276;BME280;36472;52.170;20.884;2023-05-21T01:41:18;101257.97;;;14.87;73.54
21276;BME280;36472;52.170;20.884;2023-05-21T01:43:48;101252.78;;;14.85;73.09
21276;BME280;36472;52.170;20.884;2023-05-21T01:46:22;101259.88;;;14.85;72.76
21276;BME280;36472;52.170;20.884;2023-05-21T01:48:55;101265.25;;;14.83;72.38
21276;BME280;36472;52.170;20.884;2023-05-21T01:51:24;101258.25;;;14.82;72.05
21276;BME280;36472;52.170;20.884;2023-05-21T01:53:56;101249.28;;;14.85;71.62
21276;BME280;36472;52.170;20.884;2023-05-21T01:56:24;101257.53;;;14.80;72.01
21276;BME280;36472;52.170;20.884;2023-05-21T01:58:55;101255.41;;;14.85;71.54
21276;BME280;36472;52.170;20.884;2023-05-21T02:01:26;101263.47;;;14.84;71.06
21276;BME280;36472;52.170;20.884;2023-05-21T02:03:57;101261.78;;;14.83;70.99
21276;BME280;36472;52.170;20.884;2023-05-21T02:06:26;101260.91;;;14.82;70.47
21276;BME280;36472;52.170;20.884;2023-05-21T02:08:57;101253.72;;;14.84;70.18
21276;BME280;36472;52.170;20.884;2023-05-21T02:11:26;101252.78;;;14.85;69.69
21276;BME280;36472;52.170;20.884;2023-05-21T02:13:56;101258.78;;;14.87;69.75
21276;BME280;36472;52.170;20.884;2023-05-21T02:16:24;101253.50;;;14.87;69.52
21276;BME280;36472;52.170;20.884;2023-05-21T02:18:54;101259.66;;;14.88;69.45
21276;BME280;36472;52.170;20.884;2023-05-21T02:21:24;101255.31;;;14.87;69.38
21276;BME280;36472;52.170;20.884;2023-05-21T02:23:53;101260.81;;;14.84;69.25
21276;BME280;36472;52.170;20.884;2023-05-21T02:26:23;101258.06;;;14.85;69.03
21276;BME280;36472;52.170;20.884;2023-05-21T02:28:53;101256.25;;;14.86;68.96
21276;BME280;36472;52.170;20.884;2023-05-21T02:31:22;101251.31;;;14.81;68.62
21276;BME280;36472;52.170;20.884;2023-05-21T02:33:51;101254.56;;;14.85;68.53
21276;BME280;36472;52.170;20.884;2023-05-21T02:36:20;101250.22;;;14.84;68.42
21276;BME280;36472;52.170;20.884;2023-05-21T02:38:52;101252.88;;;14.84;68.34
21276;BME280;36472;52.170;20.884;2023-05-21T02:41:22;101246.63;;;14.85;68.44
21276;BME280;36472;52.170;20.884;2023-05-21T02:43:53;101241.44;;;14.83;68.48
21276;BME280;36472;52.170;20.884;2023-05-21T02:46:22;101247.56;;;14.84;68.69
21276;BME280;36472;52.170;20.884;2023-05-21T02:48:52;101248.66;;;14.81;68.46
21276;BME280;36472;52.170;20.884;2023-05-21T02:51:21;101240.59;;;14.83;68.51
21276;BME280;36472;52.170;20.884;2023-05-21T02:53:50;101241.44;;;14.83;68.71
21276;BME280;36472;52.170;20.884;2023-05-21T02:56:19;101239.75;;;14.82;68.65
21276;BME280;36472;52.170;20.884;2023-05-21T02:58:50;101244.00;;;14.85;69.30
21276;BME280;36472;52.170;20.884;2023-05-21T03:01:19;101246.00;;;14.81;69.50
21276;BME280;36472;52.170;20.884;2023-05-21T03:03:48;101243.38;;;14.81;69.38
21276;BME280;36472;52.170;20.884;2023-05-21T03:06:18;101240.94;;;14.78;69.54
21276;BME280;36472;52.170;20.884;2023-05-21T03:08:47;101251.72;;;14.75;69.81
21276;BME280;36472;52.170;20.884;2023-05-21T03:11:17;101240.19;;;14.76;70.19
21276;BME280;36472;52.170;20.884;2023-05-21T03:13:46;101236.03;;;14.72;70.15
21276;BME280;36472;52.170;20.884;2023-05-21T03:16:16;101232.47;;;14.73;69.86
21276;BME280;36472;52.170;20.884;2023-05-21T03:18:46;101235.22;;;14.71;70.32
21276;BME280;36472;52.170;20.884;2023-05-21T03:21:15;101231.50;;;14.74;70.16
21276;BME280;36472;52.170;20.884;2023-05-21T03:23:44;101227.78;;;14.76;69.87
21276;BME280;36472;52.170;20.884;2023-05-21T03:26:13;101223.34;;;14.77;69.01
21276;BME280;36472;52.170;20.884;2023-05-21T03:28:42;101233.63;;;14.82;69.75
21276;BME280;36472;52.170;20.884;2023-05-21T03:31:11;101230.97;;;14.82;69.81
21276;BME280;36472;52.170;20.884;2023-05-21T03:34:01;101227.25;;;14.84;70.11
21276;BME280;36472;52.170;20.884;2023-05-21T03:36:31;101226.81;;;14.90;69.86
21276;BME280;36472;52.170;20.884;2023-05-21T03:39:02;101221.84;;;14.99;69.47
21276;BME280;36472;52.170;20.884;2023-05-21T03:41:33;101217.47;;;15.10;67.85
21276;BME280;36472;52.170;20.884;2023-05-21T03:44:08;101213.03;;;15.11;68.58
21276;BME280;36472;52.170;20.884;2023-05-21T03:46:47;101217.59;;;15.09;68.70
21276;BME280;36472;52.170;20.884;2023-05-21T03:49:24;101215.56;;;15.12;68.44
21276;BME280;36472;52.170;20.884;2023-05-21T03:51:55;101215.25;;;15.17;68.35
21276;BME280;36472;52.170;20.884;2023-05-21T03:54:25;101222.97;;;15.20;67.71
21276;BME280;36472;52.170;20.884;2023-05-21T03:56:59;101225.88;;;15.28;66.92
21276;BME280;36472;52.170;20.884;2023-05-21T03:59:28;101220.16;;;15.34;65.58
21276;BME280;36472;52.170;20.884;2023-05-21T04:01:58;101224.78;;;15.44;65.48
21276;BME280;36472;52.170;20.884;2023-05-21T04:04:29;101226.16;;;15.49;66.58
21276;BME280;36472;52.170;20.884;2023-05-21T04:06:57;101222.19;;;15.55;65.81
21276;BME280;36472;52.170;20.884;2023-05-21T04:09:27;101230.66;;;15.60;66.01
21276;BME280;36472;52.170;20.884;2023-05-21T04:11:57;101229.47;;;15.64;65.72
21276;BME280;36472;52.170;20.884;2023-05-21T04:14:26;101223.63;;;15.72;64.77
21276;BME280;36472;52.170;20.884;2023-05-21T04:16:54;101219.81;;;15.76;64.19
21276;BME280;36472;52.170;20.884;2023-05-21T04:19:23;101230.47;;;15.87;64.47
21276;BME280;36472;52.170;20.884;2023-05-21T04:21:53;101228.19;;;15.94;64.52
21276;BME280;36472;52.170;20.884;2023-05-21T04:24:23;101227.00;;;15.98;63.65
21276;BME280;36472;52.170;20.884;2023-05-21T04:27:08;101230.03;;;16.05;61.71
21276;BME280;36472;52.170;20.884;2023-05-21T04:29:37;101223.06;;;16.15;62.40
21276;BME280;36472;52.170;20.884;2023-05-21T04:32:10;101216.44;;;16.21;62.08
21276;BME280;36472;52.170;20.884;2023-05-21T04:34:41;101211.41;;;16.29;60.98
21276;BME280;36472;52.170;20.884;2023-05-21T04:37:12;101219.63;;;16.37;60.54
21276;BME280;36472;52.170;20.884;2023-05-21T04:39:45;101216.03;;;16.50;59.47
21276;BME280;36472;52.170;20.884;2023-05-21T04:42:14;101214.84;;;16.54;58.97
21276;BME280;36472;52.170;20.884;2023-05-21T04:44:43;101224.72;;;16.63;59.36
21276;BME280;36472;52.170;20.884;2023-05-21T04:47:12;101214.72;;;16.67;57.77
21276;BME280;36472;52.170;20.884;2023-05-21T04:49:42;101219.22;;;16.77;57.43
21276;BME280;36472;52.170;20.884;2023-05-21T04:52:12;101211.84;;;16.92;56.23
21276;BME280;36472;52.170;20.884;2023-05-21T04:54:41;101218.63;;;16.85;56.35
21276;BME280;36472;52.170;20.884;2023-05-21T04:57:12;101208.72;;;16.98;56.20
21276;BME280;36472;52.170;20.884;2023-05-21T04:59:41;101220.06;;;17.12;55.50
21276;BME280;36472;52.170;20.884;2023-05-21T05:02:10;101212.56;;;17.17;55.93
21276;BME280;36472;52.170;20.884;2023-05-21T05:04:39;101215.47;;;17.25;56.81
21276;BME280;36472;52.170;20.884;2023-05-21T05:07:12;101214.81;;;17.33;56.95
21276;BME280;36472;52.170;20.884;2023-05-21T05:09:42;101215.41;;;17.36;55.44
21276;BME280;36472;52.170;20.884;2023-05-21T05:12:11;101218.31;;;17.45;54.48
21276;BME280;36472;52.170;20.884;2023-05-21T05:14:40;101215.00;;;17.52;54.00
21276;BME280;36472;52.170;20.884;2023-05-21T05:17:09;101223.91;;;17.63;53.91
21276;BME280;36472;52.170;20.884;2023-05-21T05:19:38;101220.72;;;17.80;53.70
21276;BME280;36472;52.170;20.884;2023-05-21T05:22:07;101221.16;;;17.97;52.44
21276;BME280;36472;52.170;20.884;2023-05-21T05:24:40;101217.94;;;18.14;53.28
21276;BME280;36472;52.170;20.884;2023-05-21T05:27:09;101215.66;;;18.30;53.41
21276;BME280;36472;52.170;20.884;2023-05-21T05:29:38;101218.16;;;18.53;52.99
21276;BME280;36472;52.170;20.884;2023-05-21T05:32:07;101212.38;;;18.79;51.46
21276;BME280;36472;52.170;20.884;2023-05-21T05:34:37;101214.34;;;18.98;50.70
21276;BME280;36472;52.170;20.884;2023-05-21T05:37:05;101211.75;;;19.27;49.89
21276;BME280;36472;52.170;20.884;2023-05-21T05:39:34;101209.25;;;19.45;50.69
21276;BME280;36472;52.170;20.884;2023-05-21T05:42:05;101207.47;;;19.75;48.76
21276;BME280;36472;52.170;20.884;2023-05-21T05:44:35;101209.16;;;19.95;49.20
21276;BME280;36472;52.170;20.884;2023-05-21T05:47:04;101216.56;;;20.21;48.44
21276;BME280;36472;52.170;20.884;2023-05-21T05:49:38;101208.50;;;20.31;47.75
21276;BME280;36472;52.170;20.884;2023-05-21T05:52:07;101205.94;;;20.49;46.51
21276;BME280;36472;52.170;20.884;2023-05-21T05:54:36;101208.31;;;20.62;46.26
21276;BME280;36472;52.170;20.884;2023-05-21T05:57:06;101202.09;;;20.81;46.50
21276;BME280;36472;52.170;20.884;2023-05-21T05:59:36;101199.72;;;20.96;46.44
21276;BME280;36472;52.170;20.884;2023-05-21T06:02:05;101201.31;;;21.16;47.43
21276;BME280;36472;52.170;20.884;2023-05-21T06:04:35;101205.78;;;21.25;45.80
21276;BME280;36472;52.170;20.884;2023-05-21T06:07:04;101198.63;;;21.44;44.50
21276;BME280;36472;52.170;20.884;2023-05-21T06:09:35;101202.47;;;21.59;44.52
21276;BME280;36472;52.170;20.884;2023-05-21T06:12:07;101204.28;;;21.77;42.74
21276;BME280;36472;52.170;20.884;2023-05-21T06:14:41;101207.34;;;21.82;42.04
21276;BME280;36472;52.170;20.884;2023-05-21T06:17:12;101209.09;;;21.91;42.96
21276;BME280;36472;52.170;20.884;2023-05-21T06:19:41;101206.41;;;22.09;42.30
21276;BME280;36472;52.170;20.884;2023-05-21T06:22:11;101214.00;;;22.22;42.86
21276;BME280;36472;52.170;20.884;2023-05-21T06:24:41;101211.13;;;22.33;42.46
21276;BME280;36472;52.170;20.884;2023-05-21T06:27:11;101208.03;;;22.54;41.83
21276;BME280;36472;52.170;20.884;2023-05-21T06:29:41;101212.66;;;22.70;41.50
21276;BME280;36472;52.170;20.884;2023-05-21T06:32:09;101209.69;;;22.82;41.04
21276;BME280;36472;52.170;20.884;2023-05-21T06:34:39;101208.38;;;22.86;41.60
21276;BME280;36472;52.170;20.884;2023-05-21T06:37:08;101212.91;;;22.93;40.65
21276;BME280;36472;52.170;20.884;2023-05-21T06:39:37;101200.13;;;23.13;40.87
21276;BME280;36472;52.170;20.884;2023-05-21T06:42:06;101202.84;;;23.22;40.04
21276;BME280;36472;52.170;20.884;2023-05-21T06:45:12;101198.16;;;23.24;40.62
21276;BME280;36472;52.170;20.884;2023-05-21T06:47:43;101198.16;;;23.32;40.35
21276;BME280;36472;52.170;20.884;2023-05-21T06:50:13;101191.81;;;23.49;40.94
21276;BME280;36472;52.170;20.884;2023-05-21T06:52:41;101190.16;;;23.65;39.95
21276;BME280;36472;52.170;20.884;2023-05-21T06:55:10;101182.81;;;23.83;40.30
21276;BME280;36472;52.170;20.884;2023-05-21T06:57:58;101182.81;;;23.92;40.19
21276;BME280;36472;52.170;20.884;2023-05-21T07:00:28;101187.16;;;23.84;39.31
21276;BME280;36472;52.170;20.884;2023-05-21T07:02:57;101179.59;;;24.04;40.06
21276;BME280;36472;52.170;20.884;2023-05-21T07:05:27;101185.47;;;24.24;39.13
21276;BME280;36472;52.170;20.884;2023-05-21T07:07:56;101179.84;;;24.42;38.02
21276;BME280;36472;52.170;20.884;2023-05-21T07:10:25;101187.09;;;24.42;38.22
21276;BME280;36472;52.170;20.884;2023-05-21T07:12:53;101178.00;;;24.59;38.06
21276;BME280;36472;52.170;20.884;2023-05-21T07:15:22;101180.44;;;24.77;39.05
21276;BME280;36472;52.170;20.884;2023-05-21T07:17:53;101177.19;;;24.90;36.57
21276;BME280;36472;52.170;20.884;2023-05-21T07:20:22;101171.78;;;24.98;36.29
21276;BME280;36472;52.170;20.884;2023-05-21T07:22:54;101176.31;;;24.98;37.21
21276;BME280;36472;52.170;20.884;2023-05-21T07:25:23;101173.59;;;25.06;38.21
21276;BME280;36472;52.170;20.884;2023-05-21T07:27:52;101175.22;;;25.15;37.76
21276;BME280;36472;52.170;20.884;2023-05-21T07:30:21;101174.16;;;25.25;36.46
21276;BME280;36472;52.170;20.884;2023-05-21T07:32:50;101174.97;;;25.33;37.49
21276;BME280;36472;52.170;20.884;2023-05-21T07:35:21;101171.56;;;25.39;35.83
21276;BME280;36472;52.170;20.884;2023-05-21T07:37:50;101173.66;;;25.52;36.51
21276;BME280;36472;52.170;20.884;2023-05-21T07:40:19;101169.75;;;25.55;36.26
21276;BME280;36472;52.170;20.884;2023-05-21T07:42:49;101170.63;;;25.55;37.19
21276;BME280;36472;52.170;20.884;2023-05-21T07:45:21;101162.94;;;25.44;35.63
21276;BME280;36472;52.170;20.884;2023-05-21T07:47:50;101163.47;;;25.39;36.20
21276;BME280;36472;52.170;20.884;2023-05-21T07:50:21;101167.13;;;25.47;35.30
21276;BME280;36472;52.170;20.884;2023-05-21T07:52:50;101164.13;;;25.42;35.00
21276;BME280;36472;52.170;20.884;2023-05-21T07:55:20;101162.94;;;25.44;35.79
21276;BME280;36472;52.170;20.884;2023-05-21T07:57:49;101169.47;;;25.50;36.20
21276;BME280;36472;52.170;20.884;2023-05-21T08:00:25;101164.13;;;25.65;35.57
21276;BME280;36472;52.170;20.884;2023-05-21T08:02:56;101159.88;;;25.70;35.57
21276;BME280;36472;52.170;20.884;2023-05-21T08:05:27;101159.03;;;25.70;34.24
21276;BME280;36472;52.170;20.884;2023-05-21T08:07:56;101161.91;;;25.68;33.45
21276;BME280;36472;52.170;20.884;2023-05-21T08:10:29;101159.34;;;25.75;34.27
21276;BME280;36472;52.170;20.884;2023-05-21T08:12:58;101157.19;;;25.70;32.25
21276;BME280;36472;52.170;20.884;2023-05-21T08:15:27;101159.03;;;25.70;32.84
21276;BME280;36472;52.170;20.884;2023-05-21T08:17:56;101152.84;;;25.69;33.54
21276;BME280;36472;52.170;20.884;2023-05-21T08:20:27;101154.13;;;25.73;33.91
21276;BME280;36472;52.170;20.884;2023-05-21T08:22:57;101156.72;;;25.67;31.22
21276;BME280;36472;52.170;20.884;2023-05-21T08:25:30;101149.09;;;25.70;32.67
21276;BME280;36472;52.170;20.884;2023-05-21T08:28:02;101152.84;;;25.84;34.68
21276;BME280;36472;52.170;20.884;2023-05-21T08:30:30;101157.00;;;25.95;33.74
21276;BME280;36472;52.170;20.884;2023-05-21T08:32:59;101150.50;;;26.04;34.25
21276;BME280;36472;52.170;20.884;2023-05-21T08:35:32;101146.91;;;26.12;33.80
21276;BME280;36472;52.170;20.884;2023-05-21T08:38:10;101139.47;;;26.29;35.23
21276;BME280;36472;52.170;20.884;2023-05-21T08:40:46;101140.31;;;26.29;33.48
21276;BME280;36472;52.170;20.884;2023-05-21T08:43:18;101140.13;;;26.31;32.71
21276;BME280;36472;52.170;20.884;2023-05-21T08:45:53;101147.44;;;26.37;34.34
21276;BME280;36472;52.170;20.884;2023-05-21T08:48:27;101153.41;;;26.33;33.01
21276;BME280;36472;52.170;20.884;2023-05-21T08:50:58;101157.78;;;26.19;32.22
21276;BME280;36472;52.170;20.884;2023-05-21T08:53:32;101148.19;;;26.01;32.43
21276;BME280;36472;52.170;20.884;2023-05-21T08:56:05;101146.44;;;26.08;32.59
21276;BME280;36472;52.170;20.884;2023-05-21T08:58:45;101152.56;;;26.17;33.03
21276;BME280;36472;52.170;20.884;2023-05-21T09:01:18;101146.63;;;26.22;32.47
21276;BME280;36472;52.170;20.884;2023-05-21T09:03:57;101153.03;;;26.21;31.85
21276;BME280;36472;52.170;20.884;2023-05-21T09:06:49;101162.50;;;26.17;32.15
21276;BME280;36472;52.170;20.884;2023-05-21T09:09:33;101152.84;;;26.07;31.20
21276;BME280;36472;52.170;20.884;2023-05-21T09:12:07;101152.13;;;26.13;30.42
21276;BME280;36472;52.170;20.884;2023-05-21T09:14:37;101147.38;;;26.16;32.13
21276;BME280;36472;52.170;20.884;2023-05-21T09:17:13;101151.28;;;26.28;32.01
21276;BME280;36472;52.170;20.884;2023-05-21T09:20:10;101136.78;;;26.29;30.90
21276;BME280;36472;52.170;20.884;2023-05-21T09:22:48;101136.22;;;26.34;30.96
21276;BME280;36472;52.170;20.884;2023-05-21T09:25:22;101132.97;;;26.38;31.92
21276;BME280;36472;52.170;20.884;2023-05-21T09:27:51;101144.38;;;26.55;29.09
21276;BME280;36472;52.170;20.884;2023-05-21T09:30:20;101137.78;;;26.58;31.36
21276;BME280;36472;52.170;20.884;2023-05-21T09:32:57;101137.88;;;26.79;30.51
21276;BME280;36472;52.170;20.884;2023-05-21T09:35:27;101132.47;;;26.79;29.46
21276;BME280;36472;52.170;20.884;2023-05-21T09:37:57;101126.78;;;26.89;29.52
21276;BME280;36472;52.170;20.884;2023-05-21T09:40:26;101131.31;;;26.88;29.80
21276;BME280;36472;52.170;20.884;2023-05-21T09:42:55;101126.88;;;26.96;29.00
21276;BME280;36472;52.170;20.884;2023-05-21T09:45:27;101128.84;;;27.09;28.68
21276;BME280;36472;52.170;20.884;2023-05-21T09:48:02;101133.25;;;27.10;30.66
21276;BME280;36472;52.170;20.884;2023-05-21T09:50:35;101127.66;;;27.11;29.07
21276;BME280;36472;52.170;20.884;2023-05-21T09:53:11;101122.00;;;27.06;29.66
21276;BME280;36472;52.170;20.884;2023-05-21T09:55:40;101125.56;;;27.28;29.20
21276;BME280;36472;52.170;20.884;2023-05-21T09:58:10;101120.44;;;27.33;29.27
21276;BME280;36472;52.170;20.884;2023-05-21T10:00:38;101115.78;;;27.49;29.57
21276;BME280;36472;52.170;20.884;2023-05-21T10:03:10;101118.94;;;27.52;30.44
21276;BME280;36472;52.170;20.884;2023-05-21T10:05:42;101123.00;;;27.70;28.25
21276;BME280;36472;52.170;20.884;2023-05-21T10:08:15;101127.44;;;27.77;28.86
21276;BME280;36472;52.170;20.884;2023-05-21T10:10:47;101116.56;;;27.92;27.73
21276;BME280;36472;52.170;20.884;2023-05-21T10:13:21;101118.31;;;28.07;28.77
21276;BME280;36472;52.170;20.884;2023-05-21T10:16:00;101115.81;;;28.05;27.71
21276;BME280;36472;52.170;20.884;2023-05-21T10:18:31;101110.91;;;28.15;27.53
21276;BME280;36472;52.170;20.884;2023-05-21T10:21:01;101117.66;;;28.40;27.54
21276;BME280;36472;52.170;20.884;2023-05-21T10:23:33;101116.63;;;28.82;27.31
21276;BME280;36472;52.170;20.884;2023-05-21T10:26:05;101098.00;;;29.34;26.16
21276;BME280;36472;52.170;20.884;2023-05-21T10:28:36;101112.16;;;29.50;26.90
21276;BME280;36472;52.170;20.884;2023-05-21T10:31:06;101109.25;;;29.84;27.22
21276;BME280;36472;52.170;20.884;2023-05-21T10:33:37;101113.75;;;30.17;26.74
21276;BME280;36472;52.170;20.884;2023-05-21T10:36:06;101105.09;;;29.82;25.32
21276;BME280;36472;52.170;20.884;2023-05-21T10:38:38;101103.63;;;29.59;26.22
21276;BME280;36472;52.170;20.884;2023-05-21T10:41:10;101099.22;;;29.72;26.05
21276;BME280;36472;52.170;20.884;2023-05-21T10:44:01;101101.31;;;29.63;26.53
21276;BME280;36472;52.170;20.884;2023-05-21T10:47:08;101108.22;;;29.59;26.41
21276;BME280;36472;52.170;20.884;2023-05-21T10:50:05;101097.19;;;29.54;26.82
21276;BME280;36472;52.170;20.884;2023-05-21T10:52:58;101098.19;;;29.73;25.87
21276;BME280;36472;52.170;20.884;2023-05-21T10:55:45;101096.31;;;29.73;25.86
21276;BME280;36472;52.170;20.884;2023-05-21T10:59:10;101087.78;;;29.43;26.23
21276;BME280;36472;52.170;20.884;2023-05-21T11:01:50;101093.81;;;29.58;25.70
21276;BME280;36472;52.170;20.884;2023-05-21T11:04:25;101086.09;;;29.75;25.64
21276;BME280;36472;52.170;20.884;2023-05-21T11:06:57;101091.13;;;29.78;25.83
21276;BME280;36472;52.170;20.884;2023-05-21T11:09:26;101083.22;;;29.77;26.12
21276;BME280;36472;52.170;20.884;2023-05-21T11:11:58;101087.81;;;29.76;26.64
21276;BME280;36472;52.170;20.884;2023-05-21T11:14:32;101084.25;;;29.76;24.75
21276;BME280;36472;52.170;20.884;2023-05-21T11:17:11;101078.41;;;29.79;24.01
21276;BME280;36472;52.170;20.884;2023-05-21T11:19:42;101077.59;;;29.45;23.66
21276;BME280;36472;52.170;20.884;2023-05-21T11:22:22;101071.78;;;29.28;25.42
21276;BME280;36472;52.170;20.884;2023-05-21T11:24:53;101069.25;;;29.20;25.50
21276;BME280;36472;52.170;20.884;2023-05-21T11:27:35;101064.06;;;29.25;26.40
21276;BME280;36472;52.170;20.884;2023-05-21T11:30:06;101065.91;;;29.31;26.77
21276;BME280;36472;52.170;20.884;2023-05-21T11:32:36;101058.84;;;29.23;26.71
21276;BME280;36472;52.170;20.884;2023-05-21T11:35:07;101058.84;;;29.23;26.06
21276;BME280;36472;52.170;20.884;2023-05-21T11:37:38;101061.09;;;29.13;25.92
21276;BME280;36472;52.170;20.884;2023-05-21T11:40:25;101050.03;;;28.88;26.68
21276;BME280;36472;52.170;20.884;2023-05-21T11:42:58;101056.69;;;28.79;25.48
21276;BME280;36472;52.170;20.884;2023-05-21T11:45:31;101055.44;;;28.88;26.20
21276;BME280;36472;52.170;20.884;2023-05-21T11:48:01;101062.13;;;28.85;25.79
21276;BME280;36472;52.170;20.884;2023-05-21T11:50:31;101064.13;;;28.63;28.07
21276;BME280;36472;52.170;20.884;2023-05-21T11:53:01;101062.81;;;28.46;28.35
21276;BME280;36472;52.170;20.884;2023-05-21T11:55:30;101061.66;;;28.27;27.91
21276;BME280;36472;52.170;20.884;2023-05-21T11:58:01;101061.19;;;28.16;28.24
21276;BME280;36472;52.170;20.884;2023-05-21T12:00:30;101052.94;;;27.90;27.59
21276;BME280;36472;52.170;20.884;2023-05-21T12:03:06;101053.91;;;27.82;28.16
21276;BME280;36472;52.170;20.884;2023-05-21T12:05:44;101052.63;;;27.71;29.58
21276;BME280;36472;52.170;20.884;2023-05-21T12:08:20;101055.56;;;27.48;29.69
21276;BME280;36472;52.170;20.884;2023-05-21T12:10:56;101049.94;;;27.21;29.91
21276;BME280;36472;52.170;20.884;2023-05-21T12:13:27;101051.00;;;27.05;29.89
21276;BME280;36472;52.170;20.884;2023-05-21T12:15:56;101046.47;;;26.84;30.58
21276;BME280;36472;52.170;20.884;2023-05-21T12:18:25;101051.22;;;26.82;28.29
21276;BME280;36472;52.170;20.884;2023-05-21T12:20:54;101040.47;;;26.67;28.55
21276;BME280;36472;52.170;20.884;2023-05-21T12:23:24;101041.69;;;26.65;29.24
21276;BME280;36472;52.170;20.884;2023-05-21T12:25:53;101042.41;;;26.59;30.86
21276;BME280;36472;52.170;20.884;2023-05-21T12:28:23;101039.84;;;26.50;30.37
21276;BME280;36472;52.170;20.884;2023-05-21T12:30:53;101035.03;;;26.46;30.55
21276;BME280;36472;52.170;20.884;2023-05-21T12:33:22;101031.22;;;26.40;30.00
21276;BME280;36472;52.170;20.884;2023-05-21T12:35:52;101036.16;;;26.37;30.32
21276;BME280;36472;52.170;20.884;2023-05-21T12:38:21;101017.09;;;26.38;30.05
21276;BME280;36472;52.170;20.884;2023-05-21T12:40:50;101032.38;;;26.31;30.63
21276;BME280;36472;52.170;20.884;2023-05-21T12:43:19;101024.66;;;26.28;30.80
21276;BME280;36472;52.170;20.884;2023-05-21T12:45:48;101030.91;;;26.13;30.36
21276;BME280;36472;52.170;20.884;2023-05-21T12:48:18;101027.81;;;26.17;29.20
21276;BME280;36472;52.170;20.884;2023-05-21T12:50:47;101025.06;;;25.95;30.37
21276;BME280;36472;52.170;20.884;2023-05-21T12:53:16;101024.03;;;25.96;29.25
21276;BME280;36472;52.170;20.884;2023-05-21T12:55:45;101018.81;;;25.94;29.39
21276;BME280;36472;52.170;20.884;2023-05-21T12:58:14;101027.38;;;25.98;29.57
21276;BME280;36472;52.170;20.884;2023-05-21T13:00:43;101014.13;;;25.97;30.64
21276;BME280;36472;52.170;20.884;2023-05-21T13:03:12;101018.53;;;26.04;31.62